createdAt,value
2017-05-11T00:01:25.582Z,4.54
2017-05-11T00:03:53.068Z,4.82
2017-05-11T00:06:20.067Z,4.66
2017-05-11T00:08:47.096Z,4.58
2017-05-11T00:11:14.519Z,4.26
2017-05-11T00:13:41.529Z,5.44
2017-05-11T00:16:08.532Z,5.38
2017-05-11T00:18:36.664Z,5.36
2017-05-11T00:21:03.703Z,6.24
2017-05-11T00:23:30.740Z,5.08
2017-05-11T00:25:58.129Z,5.68
2017-05-11T00:28:25.094Z,5.40
2017-05-11T00:30:52.107Z,5.64
2017-05-11T00:33:19.468Z,4.72
2017-05-11T00:35:46.484Z,5.66
2017-05-11T00:38:13.493Z,6.34
2017-05-11T00:40:41.637Z,6.00
2017-05-11T00:43:08.649Z,7.08
2017-05-11T00:45:35.697Z,8.68
2017-05-11T00:48:03.080Z,11.36
2017-05-11T00:50:30.124Z,9.54
2017-05-11T00:52:57.136Z,8.92
2017-05-11T00:55:24.556Z,9.46
2017-05-11T00:57:51.571Z,10.60
2017-05-11T01:00:18.577Z,9.80
2017-05-11T01:02:45.902Z,8.52
2017-05-11T01:05:12.896Z,10.30
2017-05-11T01:07:40.627Z,11.50
2017-05-11T01:10:08.812Z,9.62
2017-05-11T01:12:35.834Z,10.66
2017-05-11T01:15:02.833Z,10.00
2017-05-11T01:17:30.654Z,10.26
2017-05-11T01:19:57.672Z,9.96
2017-05-11T01:22:24.689Z,9.24
2017-05-11T01:24:52.121Z,8.78
2017-05-11T01:27:19.880Z,10.28
2017-05-11T01:29:46.907Z,10.62
2017-05-11T01:32:14.266Z,9.88
2017-05-11T01:34:41.328Z,11.58
2017-05-11T01:37:08.344Z,11.58
2017-05-11T01:39:35.720Z,9.70
2017-05-11T01:42:02.731Z,10.28
2017-05-11T01:44:29.760Z,10.24
2017-05-11T01:46:57.169Z,10.62
2017-05-11T01:49:24.195Z,14.06
2017-05-11T01:51:51.273Z,13.38
2017-05-11T01:54:19.452Z,13.08
2017-05-11T01:56:46.429Z,12.60
2017-05-11T01:59:13.426Z,11.46
2017-05-11T02:01:40.781Z,10.24
2017-05-11T02:04:07.817Z,8.78
2017-05-11T02:06:34.831Z,9.58
2017-05-11T02:09:02.241Z,10.42
2017-05-11T02:11:29.984Z,11.30
2017-05-11T02:13:57.027Z,10.32
2017-05-11T02:16:24.336Z,10.44
2017-05-11T02:18:52.100Z,10.44
2017-05-11T02:21:19.130Z,10.56
2017-05-11T02:23:46.475Z,11.26
2017-05-11T02:26:13.633Z,10.42
2017-05-11T02:28:40.670Z,9.22
2017-05-11T02:31:08.017Z,9.60
2017-05-11T02:33:35.035Z,9.82
2017-05-11T02:36:02.052Z,11.02
2017-05-11T02:38:30.185Z,11.12
2017-05-11T02:40:57.173Z,9.88
2017-05-11T02:43:24.894Z,9.40
2017-05-11T02:45:52.170Z,8.34
2017-05-11T02:48:19.197Z,9.84
2017-05-11T02:50:46.211Z,10.38
2017-05-11T02:53:13.616Z,9.72
2017-05-11T02:55:40.635Z,11.78
2017-05-11T02:58:07.688Z,10.60
2017-05-11T03:00:35.185Z,11.46
2017-05-11T03:03:02.182Z,10.14
2017-05-11T03:05:29.201Z,11.32
2017-05-11T03:07:56.619Z,10.72
2017-05-11T03:10:23.652Z,11.68
2017-05-11T03:12:50.667Z,10.16
2017-05-11T03:15:18.065Z,11.14
2017-05-11T03:17:45.049Z,10.32
2017-05-11T03:20:12.117Z,11.70
2017-05-11T03:22:39.514Z,10.82
2017-05-11T03:25:06.552Z,9.66
2017-05-11T03:27:33.561Z,11.78
2017-05-11T03:30:00.909Z,11.64
2017-05-11T03:32:27.941Z,11.50
2017-05-11T03:34:54.994Z,11.72
2017-05-11T03:37:22.522Z,12.30
2017-05-11T03:39:49.542Z,11.84
2017-05-11T03:42:16.603Z,11.36
2017-05-11T03:44:44.078Z,11.88
2017-05-11T03:47:11.108Z,11.72
2017-05-11T03:49:38.122Z,11.84
2017-05-11T03:52:05.515Z,11.84
2017-05-11T03:54:32.540Z,11.50
2017-05-11T03:56:59.565Z,11.30
2017-05-11T03:59:26.868Z,9.70
2017-05-11T04:01:53.901Z,9.90
2017-05-11T04:04:20.908Z,8.88
2017-05-11T04:06:48.342Z,10.60
2017-05-11T04:09:15.360Z,10.68
2017-05-11T04:11:42.375Z,10.54
2017-05-11T04:14:09.748Z,10.70
2017-05-11T04:16:36.827Z,10.74
2017-05-11T04:19:03.876Z,11.26
2017-05-11T04:21:31.169Z,10.36
2017-05-11T04:23:58.209Z,10.36
2017-05-11T04:26:25.252Z,10.38
2017-05-11T04:28:53.399Z,9.50
2017-05-11T04:31:20.408Z,11.00
2017-05-11T04:33:47.540Z,9.82
2017-05-11T04:36:14.907Z,8.98
2017-05-11T04:38:41.933Z,9.68
2017-05-11T04:41:08.960Z,10.08
2017-05-11T04:43:37.124Z,9.76
2017-05-11T04:46:04.229Z,11.16
2017-05-11T04:48:31.275Z,11.28
2017-05-11T04:50:58.750Z,9.86
2017-05-11T04:53:25.802Z,10.76
2017-05-11T04:55:52.858Z,11.48
2017-05-11T04:58:20.435Z,10.58
2017-05-11T05:00:47.542Z,11.56
2017-05-11T05:03:15.338Z,9.78
2017-05-11T05:05:42.731Z,11.50
2017-05-11T05:08:09.779Z,11.52
2017-05-11T05:10:36.887Z,11.40
2017-05-11T05:13:04.227Z,11.22
2017-05-11T05:15:31.252Z,12.50
2017-05-11T05:17:58.288Z,11.44
2017-05-11T05:20:25.597Z,11.12
2017-05-11T05:22:53.395Z,11.24
2017-05-11T05:25:20.410Z,11.62
2017-05-11T05:27:47.760Z,9.80
2017-05-11T05:30:14.780Z,10.82
2017-05-11T05:32:41.796Z,10.72
2017-05-11T05:35:09.200Z,10.48
2017-05-11T05:37:36.280Z,10.04
2017-05-11T05:40:04.060Z,9.14
2017-05-11T05:42:32.189Z,10.44
2017-05-11T05:44:59.210Z,10.26
2017-05-11T05:47:26.217Z,10.14
2017-05-11T05:49:53.559Z,10.90
2017-05-11T05:52:20.579Z,11.68
2017-05-11T05:54:48.379Z,10.22
2017-05-11T05:57:16.424Z,11.88
2017-05-11T05:59:44.409Z,12.12
2017-05-11T06:02:11.427Z,10.48
2017-05-11T06:04:39.010Z,10.16
2017-05-11T06:07:06.016Z,11.16
2017-05-11T06:09:33.041Z,8.38
2017-05-11T06:12:00.453Z,8.38
2017-05-11T06:14:27.512Z,9.28
2017-05-11T06:16:54.543Z,8.68
2017-05-11T06:19:21.910Z,10.92
2017-05-11T06:21:49.778Z,11.14
2017-05-11T06:24:16.846Z,8.96
2017-05-11T06:26:44.176Z,8.90
2017-05-11T06:29:11.215Z,7.56
2017-05-11T06:31:38.281Z,8.54
2017-05-11T06:34:05.717Z,7.52
2017-05-11T06:36:32.768Z,8.80
2017-05-11T06:38:59.785Z,7.40
2017-05-11T06:41:27.169Z,7.80
2017-05-11T06:43:54.207Z,6.90
2017-05-11T06:46:21.257Z,7.48
2017-05-11T06:48:48.740Z,6.54
2017-05-11T06:51:16.501Z,6.58
2017-05-11T06:53:43.549Z,6.04
2017-05-11T06:56:10.894Z,6.50
2017-05-11T06:58:37.937Z,6.30
2017-05-11T07:01:04.972Z,6.24
2017-05-11T07:03:32.325Z,5.52
2017-05-11T07:05:59.342Z,5.16
2017-05-11T07:08:26.360Z,5.08
2017-05-11T07:10:54.524Z,6.02
2017-05-11T07:13:21.549Z,5.38
2017-05-11T07:15:48.595Z,5.06
2017-05-11T07:18:16.113Z,5.00
2017-05-11T07:20:43.316Z,4.82
2017-05-11T07:23:11.115Z,4.74
2017-05-11T07:25:38.537Z,4.06
2017-05-11T07:28:05.603Z,5.32
2017-05-11T07:30:32.665Z,4.66
2017-05-11T07:33:00.105Z,4.02
2017-05-11T07:35:27.997Z,4.82
2017-05-11T07:37:55.063Z,3.64
2017-05-11T07:40:22.460Z,4.98
2017-05-11T07:42:50.241Z,5.10
2017-05-11T07:45:17.303Z,4.68
2017-05-11T07:47:44.745Z,3.74
2017-05-11T07:50:12.521Z,4.30
2017-05-11T07:52:40.330Z,4.66
2017-05-11T07:55:07.695Z,4.50
2017-05-11T07:57:35.484Z,4.30
2017-05-11T08:00:02.491Z,4.28
2017-05-11T08:02:29.875Z,4.72
2017-05-11T08:04:56.916Z,4.24
2017-05-11T08:07:23.964Z,4.46
2017-05-11T08:09:51.442Z,4.52
2017-05-11T08:12:25.475Z,4.18
2017-05-11T08:14:52.905Z,4.38
2017-05-11T08:17:19.919Z,4.12
2017-05-11T08:19:46.922Z,5.02
2017-05-11T08:22:14.460Z,5.04
2017-05-11T08:24:41.710Z,4.80
2017-05-11T08:27:09.619Z,5.74
2017-05-11T08:29:36.926Z,4.92
2017-05-11T08:32:03.942Z,5.34
2017-05-11T08:34:30.976Z,5.18
2017-05-11T08:36:58.372Z,5.06
2017-05-11T08:39:25.359Z,5.18
2017-05-11T08:41:52.413Z,7.30
2017-05-11T08:44:20.545Z,7.56
2017-05-11T08:46:47.599Z,5.94
2017-05-11T08:49:14.645Z,5.44
2017-05-11T08:51:41.939Z,5.56
2017-05-11T08:54:08.989Z,6.72
2017-05-11T08:56:35.998Z,6.26
2017-05-11T08:59:03.454Z,5.40
2017-05-11T09:01:31.321Z,5.46
2017-05-11T09:03:58.346Z,4.38
2017-05-11T09:06:25.829Z,3.96
2017-05-11T09:08:53.792Z,4.20
2017-05-11T09:11:20.832Z,4.40
2017-05-11T09:13:48.199Z,5.44
2017-05-11T09:16:15.961Z,4.80
2017-05-11T09:18:43.725Z,4.90
2017-05-11T09:21:11.194Z,4.74
2017-05-11T09:23:38.995Z,5.32
2017-05-11T09:26:06.099Z,4.80
2017-05-11T09:28:34.224Z,5.30
2017-05-11T09:31:01.248Z,4.98
2017-05-11T09:33:29.016Z,5.32
2017-05-11T09:35:56.455Z,5.48
2017-05-11T09:38:23.481Z,4.48
2017-05-11T09:40:50.539Z,6.20
2017-05-11T09:43:17.984Z,5.80
2017-05-11T09:45:45.019Z,4.78
2017-05-11T09:48:12.052Z,5.00
2017-05-11T09:50:39.550Z,5.66
2017-05-11T09:53:07.332Z,5.66
2017-05-11T09:55:35.132Z,6.04
2017-05-11T09:58:02.536Z,6.38
2017-05-11T10:00:30.352Z,5.48
2017-05-11T10:02:57.453Z,7.04
2017-05-11T10:05:24.796Z,6.66
2017-05-11T10:07:52.612Z,6.08
2017-05-11T10:10:19.669Z,6.56
2017-05-11T10:12:47.176Z,7.30
2017-05-11T10:15:14.231Z,6.94
2017-05-11T10:17:41.377Z,7.42
2017-05-11T10:20:08.715Z,8.40
2017-05-11T10:22:42.824Z,7.76
2017-05-11T10:25:10.209Z,8.20
2017-05-11T10:27:37.301Z,8.38
2017-05-11T10:30:04.312Z,9.26
2017-05-11T10:32:31.767Z,7.36
2017-05-11T10:34:59.563Z,7.78
2017-05-11T10:37:26.601Z,7.82
2017-05-11T10:39:54.041Z,8.24
2017-05-11T10:42:21.116Z,7.08
2017-05-11T10:44:48.156Z,5.52
2017-05-11T10:47:15.596Z,6.48
2017-05-11T10:49:43.443Z,8.10
2017-05-11T10:52:11.227Z,7.56
2017-05-11T10:54:39.371Z,8.04
2017-05-11T10:57:06.519Z,8.26
2017-05-11T10:59:33.544Z,7.88
2017-05-11T11:02:00.928Z,8.22
2017-05-11T11:04:27.992Z,8.28
2017-05-11T11:06:55.778Z,8.30
2017-05-11T11:09:23.181Z,8.48
2017-05-11T11:11:50.997Z,7.54
2017-05-11T11:14:18.071Z,7.84
2017-05-11T11:16:45.470Z,9.02
2017-05-11T11:19:13.272Z,9.44
2017-05-11T11:21:40.353Z,8.04
2017-05-11T11:24:07.728Z,9.00
2017-05-11T11:26:34.724Z,8.42
2017-05-11T11:29:01.735Z,7.90
2017-05-11T11:31:29.087Z,6.62
2017-05-11T11:33:56.125Z,7.74
2017-05-11T11:36:23.191Z,8.78
2017-05-11T11:39:05.476Z,7.80
2017-05-11T11:41:32.508Z,7.48
2017-05-11T11:43:59.561Z,7.64
2017-05-11T11:46:26.934Z,6.28
2017-05-11T11:48:53.939Z,7.42
2017-05-11T11:51:20.986Z,6.16
2017-05-11T11:53:48.400Z,7.86
2017-05-11T11:56:16.257Z,8.10
2017-05-11T11:58:43.312Z,8.44
2017-05-11T12:01:10.745Z,7.38
2017-05-11T12:03:38.541Z,6.82
2017-05-11T12:06:06.327Z,8.68
2017-05-11T12:08:33.736Z,7.82
2017-05-11T12:11:03.518Z,6.80
2017-05-11T12:13:30.521Z,5.92
2017-05-11T12:15:58.690Z,7.54
2017-05-11T12:18:26.487Z,5.98
2017-05-11T12:20:53.540Z,5.88
2017-05-11T12:23:20.962Z,5.26
2017-05-11T12:25:48.748Z,5.70
2017-05-11T12:28:16.519Z,5.86
2017-05-11T12:30:43.924Z,7.16
2017-05-11T12:33:10.978Z,6.02
2017-05-11T12:35:38.017Z,5.72
2017-05-11T12:38:05.374Z,5.54
2017-05-11T12:40:32.419Z,5.80
2017-05-11T12:42:59.450Z,5.18
2017-05-11T12:45:26.844Z,6.06
2017-05-11T12:47:54.669Z,5.34
2017-05-11T12:50:21.718Z,3.60
2017-05-11T12:52:49.212Z,3.30
2017-05-11T12:55:16.228Z,5.16
2017-05-11T12:57:43.250Z,4.80
2017-05-11T13:00:10.675Z,5.92
2017-05-11T13:02:37.741Z,4.88
2017-05-11T13:05:04.864Z,4.94
2017-05-11T13:07:32.248Z,4.66
2017-05-11T13:09:59.321Z,4.68
2017-05-11T13:12:26.364Z,5.50
2017-05-11T13:14:53.753Z,5.64
2017-05-11T13:17:20.800Z,5.18
2017-05-11T13:19:47.867Z,5.58
2017-05-11T13:22:15.208Z,4.02
2017-05-11T13:24:43.344Z,3.10
2017-05-11T13:27:10.388Z,3.80
2017-05-11T13:29:37.717Z,3.98
2017-05-11T13:32:04.725Z,3.56
2017-05-11T13:34:31.816Z,3.48
2017-05-11T13:36:59.969Z,3.36
2017-05-11T13:39:26.973Z,3.28
2017-05-11T13:41:54.010Z,4.00
2017-05-11T13:44:21.341Z,3.26
2017-05-11T13:46:48.389Z,3.46
2017-05-11T13:49:16.171Z,4.48
2017-05-11T13:51:43.716Z,4.08
2017-05-11T13:54:10.766Z,4.32
2017-05-11T13:56:37.796Z,4.10
2017-05-11T13:59:06.440Z,4.88
2017-05-11T14:01:33.468Z,4.54
2017-05-11T14:04:00.548Z,3.96
2017-05-11T14:06:27.904Z,3.92
2017-05-11T14:08:54.958Z,4.10
2017-05-11T14:11:22.756Z,4.00
2017-05-11T14:13:50.175Z,5.14
2017-05-11T14:16:17.225Z,4.84
2017-05-11T14:18:44.260Z,3.76
2017-05-11T14:21:11.641Z,4.62
2017-05-11T14:23:39.600Z,4.96
2017-05-11T14:26:06.656Z,4.06
2017-05-11T14:28:34.116Z,5.28
2017-05-11T14:31:01.143Z,4.30
2017-05-11T14:33:28.965Z,4.00
2017-05-11T14:35:56.391Z,3.60
2017-05-11T14:38:23.516Z,4.94
2017-05-11T14:40:50.581Z,4.24
2017-05-11T14:43:18.022Z,3.96
2017-05-11T14:45:45.785Z,3.62
2017-05-11T14:48:13.560Z,4.42
2017-05-11T14:50:41.717Z,4.18
2017-05-11T14:53:09.534Z,3.84
2017-05-11T14:55:36.555Z,3.48
2017-05-11T14:58:03.990Z,4.70
2017-05-11T15:00:31.049Z,5.36
2017-05-11T15:02:58.097Z,5.60
2017-05-11T15:05:25.506Z,5.80
2017-05-11T15:07:52.520Z,5.34
2017-05-11T15:10:19.577Z,4.20
2017-05-11T15:12:46.971Z,3.94
2017-05-11T15:15:14.788Z,5.12
2017-05-11T15:17:41.823Z,4.74
2017-05-11T15:20:09.205Z,4.14
2017-05-11T15:22:36.234Z,3.20
2017-05-11T15:25:03.255Z,3.70
2017-05-11T15:27:30.652Z,4.64
2017-05-11T15:29:57.724Z,3.88
2017-05-11T15:32:24.785Z,3.42
2017-05-11T15:34:52.225Z,3.26
2017-05-11T15:37:19.989Z,3.26
2017-05-11T15:39:47.269Z,3.62
2017-05-11T15:42:14.600Z,3.92
2017-05-11T15:44:41.655Z,4.50
2017-05-11T15:47:08.716Z,4.28
2017-05-11T15:49:36.112Z,3.46
2017-05-11T15:52:03.842Z,3.70
2017-05-11T15:54:30.927Z,4.50
2017-05-11T15:56:59.090Z,4.12
2017-05-11T15:59:26.144Z,3.92
2017-05-11T16:01:53.916Z,5.10
2017-05-11T16:04:22.068Z,4.18
2017-05-11T16:06:49.847Z,3.76
2017-05-11T16:09:16.911Z,3.62
2017-05-11T16:11:44.339Z,3.64
2017-05-11T16:14:12.120Z,4.90
2017-05-11T16:16:39.201Z,4.04
2017-05-11T16:19:06.603Z,3.42
2017-05-11T16:21:34.403Z,4.80
2017-05-11T16:24:01.422Z,4.54
2017-05-11T16:26:28.866Z,3.92
2017-05-11T16:28:56.661Z,3.90
2017-05-11T16:31:23.703Z,4.84
2017-05-11T16:33:51.513Z,5.50
2017-05-11T16:36:19.335Z,4.64
2017-05-11T16:38:46.365Z,5.12
2017-05-11T16:41:13.813Z,5.26
2017-05-11T16:43:40.916Z,6.22
2017-05-11T16:46:07.972Z,6.44
2017-05-11T16:48:35.303Z,5.66
2017-05-11T16:51:02.356Z,4.72
2017-05-11T16:53:29.360Z,4.82
2017-05-11T16:55:56.780Z,4.70
2017-05-11T16:58:23.784Z,6.66
2017-05-11T17:00:50.813Z,3.54
2017-05-11T17:03:18.233Z,5.72
2017-05-11T17:05:46.007Z,6.40
2017-05-11T17:08:13.770Z,2.60
2017-05-11T17:10:41.929Z,2.78
2017-05-11T17:13:08.992Z,3.22
2017-05-11T17:15:36.024Z,3.20
2017-05-11T17:18:04.281Z,3.38
2017-05-11T17:20:31.304Z,3.06
2017-05-11T17:22:59.072Z,2.60
2017-05-11T17:25:26.424Z,9.52
2017-05-11T17:27:53.454Z,6.70
2017-05-11T17:30:20.484Z,4.72
2017-05-11T17:32:47.873Z,3.22
2017-05-11T17:35:15.008Z,2.62
2017-05-11T17:37:42.044Z,2.18
2017-05-11T17:40:09.521Z,3.02
2017-05-11T17:42:36.586Z,2.88
2017-05-11T17:45:03.796Z,3.48
2017-05-11T17:47:31.174Z,4.40
2017-05-11T17:49:58.199Z,2.20
2017-05-11T17:52:25.248Z,5.44
2017-05-11T17:57:26.408Z,2.18
2017-05-11T17:59:53.878Z,2.14
2017-05-11T18:02:21.722Z,2.44
2017-05-11T18:04:48.736Z,3.42
2017-05-11T18:07:16.141Z,2.10
2017-05-11T18:09:43.947Z,2.50
2017-05-11T18:12:11.008Z,1.62
2017-05-11T18:14:38.516Z,2.52
2017-05-11T18:17:05.585Z,1.92
2017-05-11T18:19:32.657Z,2.90
2017-05-11T18:22:00.879Z,2.00
2017-05-11T18:24:28.604Z,2.20
2017-05-11T18:26:55.652Z,2.06
2017-05-11T18:29:23.016Z,1.96
2017-05-11T18:31:50.070Z,2.20
2017-05-11T18:34:17.877Z,2.72
2017-05-11T18:36:45.288Z,5.26
2017-05-11T18:39:12.369Z,3.90
2017-05-11T18:41:39.485Z,3.48
2017-05-11T18:44:06.952Z,9.56
2017-05-11T18:46:34.087Z,11.48
2017-05-11T18:49:01.212Z,4.64
2017-05-11T18:51:28.559Z,6.74
2017-05-11T18:53:55.600Z,8.98
2017-05-11T18:56:22.698Z,4.82
2017-05-11T18:58:50.254Z,3.38
2017-05-11T19:01:18.056Z,3.36
2017-05-11T19:03:45.173Z,3.54
2017-05-11T19:06:13.345Z,3.72
2017-05-11T19:08:40.387Z,3.80
2017-05-11T19:11:07.406Z,4.02
2017-05-11T19:13:34.775Z,3.58
2017-05-11T19:16:01.864Z,3.86
2017-05-11T19:18:28.964Z,5.18
2017-05-11T19:20:56.347Z,3.88
2017-05-11T19:23:23.361Z,3.96
2017-05-11T19:25:50.383Z,3.56
2017-05-11T19:28:17.708Z,4.26
2017-05-11T19:30:44.713Z,4.10
2017-05-11T19:33:11.727Z,4.00
2017-05-11T19:35:47.654Z,4.50
2017-05-11T19:38:14.683Z,4.32
2017-05-11T19:40:41.701Z,4.50
2017-05-11T19:43:09.107Z,5.50
2017-05-11T19:45:36.164Z,4.98
2017-05-11T19:48:03.192Z,5.04
2017-05-11T19:50:30.543Z,4.82
2017-05-11T19:52:57.580Z,5.28
2017-05-11T19:55:24.625Z,5.06
2017-05-11T19:57:51.933Z,5.58
2017-05-11T20:00:19.696Z,5.36
2017-05-11T20:02:47.451Z,4.64
2017-05-11T20:05:15.584Z,5.26
2017-05-11T20:07:42.651Z,4.70
2017-05-11T20:10:09.683Z,5.18
2017-05-11T20:12:37.061Z,4.94
2017-05-11T20:15:04.109Z,5.66
2017-05-11T20:17:31.173Z,4.68
2017-05-11T20:19:59.328Z,5.24
2017-05-11T20:22:26.330Z,5.08
2017-05-11T20:24:53.346Z,5.46
2017-05-11T20:27:21.500Z,4.76
2017-05-11T20:29:48.511Z,5.26
2017-05-11T20:32:15.528Z,5.18
2017-05-11T20:34:43.976Z,4.92
2017-05-11T20:37:11.759Z,5.30
2017-05-11T20:39:38.882Z,6.00
2017-05-11T20:42:06.229Z,5.82
2017-05-11T20:44:33.232Z,5.28
2017-05-11T20:47:00.260Z,5.30
2017-05-11T20:49:27.685Z,5.02
2017-05-11T20:51:54.723Z,4.78
2017-05-11T20:54:21.768Z,4.80
2017-05-11T20:56:49.124Z,5.60
2017-05-11T20:59:16.157Z,5.32
2017-05-11T21:01:43.201Z,5.62
2017-05-11T21:04:10.593Z,6.14
2017-05-11T21:06:37.620Z,5.02
2017-05-11T21:09:04.680Z,5.32
2017-05-11T21:11:31.996Z,5.90
2017-05-11T21:13:59.093Z,5.02
2017-05-11T21:16:26.834Z,5.50
2017-05-11T21:18:54.312Z,5.02
2017-05-11T21:21:22.069Z,5.04
2017-05-11T21:23:49.080Z,4.90
2017-05-11T21:26:16.470Z,4.50
2017-05-11T21:28:43.507Z,4.98
2017-05-11T21:31:10.529Z,5.48
2017-05-11T21:33:37.932Z,6.04
2017-05-11T21:36:04.967Z,5.60
2017-05-11T21:38:31.992Z,5.16
2017-05-11T21:40:59.312Z,5.62
2017-05-11T21:43:26.346Z,5.74
2017-05-11T21:45:53.433Z,5.18
2017-05-11T21:48:20.736Z,5.52
2017-05-11T21:50:47.746Z,4.90
2017-05-11T21:53:14.744Z,5.48
2017-05-11T21:55:42.057Z,5.34
2017-05-11T21:58:09.068Z,5.12
2017-05-11T22:00:36.074Z,5.30
2017-05-11T22:03:03.429Z,5.08
2017-05-11T22:05:31.184Z,5.72
2017-05-11T22:07:58.236Z,6.06
2017-05-11T22:10:25.686Z,4.78
2017-05-11T22:12:52.681Z,5.76
2017-05-11T22:15:19.677Z,6.08
2017-05-11T22:17:47.151Z,6.12
2017-05-11T22:20:14.155Z,5.40
2017-05-11T22:22:41.172Z,6.04
2017-05-11T22:25:09.305Z,6.32
2017-05-11T22:27:36.328Z,5.94
2017-05-11T22:30:03.311Z,5.88
2017-05-11T22:32:30.647Z,5.88
2017-05-11T22:34:57.639Z,5.60
2017-05-11T22:37:25.389Z,5.76
2017-05-11T22:39:52.668Z,6.04
2017-05-11T22:42:19.679Z,6.12
2017-05-11T22:44:46.753Z,6.30
2017-05-11T22:47:15.002Z,5.74
2017-05-11T22:49:42.042Z,6.28
2017-05-11T22:52:09.168Z,5.78
2017-05-11T22:54:36.539Z,6.04
2017-05-11T22:57:03.545Z,6.18
2017-05-11T22:59:30.547Z,6.06
2017-05-11T23:01:57.908Z,7.08
2017-05-11T23:04:25.657Z,6.98
2017-05-11T23:06:52.718Z,6.66
2017-05-11T23:09:20.175Z,6.64
2017-05-11T23:11:47.933Z,5.80
2017-05-11T23:14:14.949Z,6.26
2017-05-11T23:16:42.340Z,6.40
2017-05-11T23:19:09.365Z,6.96
2017-05-11T23:21:36.384Z,7.38
2017-05-11T23:24:03.676Z,5.92
2017-05-11T23:26:30.668Z,7.54
2017-05-11T23:28:57.689Z,7.08
2017-05-11T23:31:25.736Z,6.32
2017-05-11T23:33:52.745Z,7.34
2017-05-11T23:36:20.545Z,6.86
2017-05-11T23:38:47.901Z,6.92
2017-05-11T23:41:14.907Z,7.20
2017-05-11T23:43:41.937Z,7.80
2017-05-11T23:46:09.385Z,7.66
2017-05-11T23:48:36.385Z,7.92
2017-05-11T23:51:03.394Z,8.10
2017-05-11T23:53:31.450Z,7.40
2017-05-11T23:55:58.461Z,7.82
2017-05-11T23:58:25.468Z,8.16
